Time;durP1;ratioP1;P1;durP2;ratioP2;P2;SDS_P1;SDS_P2;PMS_P1;PMS_P2;Temp;Humidity;BMP_temperature;BMP_pressure;BME280_temperature;BME280_humidity;BME280_pressure;Samples;Min_cycle;Max_cycle;Signal;HPM_P1;HPM_P2
2022/08/01 00:00:22;;;;;;;7.88;7.00;;;18.00;99.90;;;;;;5039411;28;20483;-81
2022/08/01 00:02:48;;;;;;;8.73;7.78;;;18.50;99.90;;;;;;5028023;28;20056;-81
2022/08/01 00:05:14;;;;;;;8.45;7.50;;;18.00;99.90;;;;;;5039599;28;20076;-80
2022/08/01 00:07:40;;;;;;;8.55;7.63;;;18.00;99.90;;;;;;5039169;28;20025;-80
2022/08/01 00:10:09;;;;;;;6.88;6.28;;;18.00;99.90;;;;;;5039932;28;20482;-81
2022/08/01 00:12:35;;;;;;;7.53;6.72;;;18.00;99.90;;;;;;5042492;28;20044;-80
2022/08/01 00:15:01;;;;;;;8.85;6.47;;;18.00;99.90;;;;;;5040781;28;20377;-80
2022/08/01 00:17:26;;;;;;;7.63;6.53;;;18.00;99.90;;;;;;5021796;28;20037;-81
2022/08/01 00:19:52;;;;;;;6.10;5.60;;;18.00;99.90;;;;;;5046940;28;20505;-81
2022/08/01 00:22:17;;;;;;;5.55;5.03;;;18.20;99.90;;;;;;5038841;28;20077;-81
2022/08/01 00:24:43;;;;;;;5.85;5.13;;;18.00;99.90;;;;;;5038781;28;20040;-81
2022/08/01 00:27:09;;;;;;;5.75;5.25;;;18.00;99.90;;;;;;5041137;28;20191;-81
2022/08/01 00:29:34;;;;;;;4.97;4.50;;;18.50;99.90;;;;;;5045937;28;20029;-81
2022/08/01 00:32:00;;;;;;;4.13;3.35;;;18.00;99.90;;;;;;5045759;28;20186;-81
2022/08/01 00:34:25;;;;;;;2.97;2.65;;;18.00;99.90;;;;;;5042892;28;20056;-81
2022/08/01 00:36:51;;;;;;;2.83;2.63;;;18.00;99.90;;;;;;5042109;28;20049;-81
2022/08/01 00:39:16;;;;;;;3.75;2.65;;;18.00;99.90;;;;;;5051032;28;20043;-81
2022/08/01 00:41:42;;;;;;;5.05;3.20;;;18.00;99.90;;;;;;5049185;28;20435;-82
2022/08/01 00:44:07;;;;;;;2.78;2.58;;;18.00;99.90;;;;;;5043789;28;20409;-82
2022/08/01 00:46:33;;;;;;;4.80;2.25;;;17.90;99.90;;;;;;5042664;28;20048;-83
2022/08/01 00:49:00;;;;;;;2.45;2.25;;;19.00;99.90;;;;;;5043251;28;20041;-82
2022/08/01 00:51:26;;;;;;;3.15;2.70;;;17.90;99.90;;;;;;5049641;28;20520;-83
2022/08/01 00:53:53;;;;;;;3.88;2.05;;;17.90;99.90;;;;;;5024758;28;20088;-82
2022/08/01 00:56:25;;;;;;;2.05;1.95;;;18.60;99.90;;;;;;5050445;28;20535;-83
2022/08/01 00:58:51;;;;;;;2.47;2.10;;;18.10;99.90;;;;;;5023878;28;20041;-83
2022/08/01 01:01:17;;;;;;;3.28;1.85;;;17.90;99.90;;;;;;5050798;28;20087;-82
2022/08/01 01:03:43;;;;;;;3.58;1.90;;;17.90;99.90;;;;;;5041230;28;20072;-81
2022/08/01 01:06:14;;;;;;;2.72;2.20;;;17.90;99.90;;;;;;5041875;28;20030;-82
2022/08/01 01:08:49;;;;;;;3.47;2.17;;;17.90;99.90;;;;;;5026684;28;20076;-83
2022/08/01 01:11:28;;;;;;;3.22;2.28;;;18.00;99.90;;;;;;5025823;28;20041;-82
2022/08/01 01:14:00;;;;;;;2.90;1.77;;;17.90;99.90;;;;;;5027412;28;20029;-82
2022/08/01 01:16:29;;;;;;;2.67;1.83;;;17.90;99.90;;;;;;5040968;28;20048;-82
2022/08/01 01:18:57;;;;;;;4.90;2.05;;;17.90;99.90;;;;;;5022319;28;20439;-83
2022/08/01 01:21:41;;;;;;;3.40;1.92;;;17.90;99.90;;;;;;5026374;28;20116;-82
2022/08/01 01:24:25;;;;;;;4.90;2.08;;;17.90;99.90;;;;;;5044422;28;20045;-82
2022/08/01 01:27:12;;;;;;;5.40;2.17;;;17.90;99.90;;;;;;5026098;28;20068;-83
2022/08/01 01:29:50;;;;;;;2.50;2.08;;;17.90;99.90;;;;;;5040632;28;20656;-82
2022/08/01 01:32:25;;;;;;;3.78;2.22;;;17.90;99.90;;;;;;5030454;28;20056;-82
2022/08/01 01:34:54;;;;;;;3.25;1.95;;;18.00;99.90;;;;;;5047796;28;20052;-82
2022/08/01 01:37:24;;;;;;;5.57;1.20;;;18.40;99.90;;;;;;5041415;28;20077;-82
2022/08/01 01:39:52;;;;;;;5.72;1.38;;;17.90;99.90;;;;;;5028996;28;20151;-82
2022/08/01 01:42:19;;;;;;;2.58;1.50;;;17.80;99.90;;;;;;5041487;28;20041;-82
2022/08/01 01:44:45;;;;;;;2.95;1.42;;;17.80;99.90;;;;;;5046391;28;20044;-81
2022/08/01 01:47:13;;;;;;;5.63;1.55;;;18.30;99.90;;;;;;5041725;28;20045;-81
2022/08/01 01:49:41;;;;;;;3.13;1.17;;;17.80;99.90;;;;;;5040667;28;20045;-83
2022/08/01 01:52:08;;;;;;;4.50;1.40;;;17.70;99.90;;;;;;5048695;28;20124;-80
2022/08/01 01:54:37;;;;;;;4.50;1.30;;;17.70;99.90;;;;;;5039577;28;20044;-82
2022/08/01 01:57:05;;;;;;;4.57;1.48;;;17.70;99.90;;;;;;5040636;28;20049;-81
2022/08/01 01:59:34;;;;;;;4.05;1.45;;;17.70;99.90;;;;;;5043650;28;20033;-82
2022/08/01 02:02:03;;;;;;;5.85;1.30;;;17.60;99.90;;;;;;5006147;28;1070272;-81
2022/08/01 02:04:32;;;;;;;9.18;1.40;;;17.60;99.90;;;;;;5006921;28;20041;-82
2022/08/01 02:07:00;;;;;;;7.63;1.38;;;17.80;99.90;;;;;;5049041;28;20029;-81
2022/08/01 02:09:28;;;;;;;6.85;1.27;;;17.60;99.90;;;;;;5043843;28;20505;-82
2022/08/01 02:11:55;;;;;;;8.13;1.20;;;18.00;99.90;;;;;;5044671;28;20063;-82
2022/08/01 02:14:23;;;;;;;3.40;1.17;;;17.50;99.90;;;;;;5041680;28;20036;-82
2022/08/01 02:16:50;;;;;;;5.97;1.48;;;17.50;99.90;;;;;;5022770;28;20508;-82
2022/08/01 02:19:18;;;;;;;5.78;1.20;;;17.60;99.90;;;;;;5049080;28;20045;-82
2022/08/01 02:21:57;;;;;;;9.02;1.83;;;17.40;99.90;;;;;;5046088;28;20091;-82
2022/08/01 02:24:36;;;;;;;4.35;1.20;;;17.40;99.90;;;;;;5041395;28;20132;-80
2022/08/01 02:27:08;;;;;;;8.27;1.13;;;17.50;99.90;;;;;;5049207;28;20053;-81
2022/08/01 02:29:41;;;;;;;8.00;1.83;;;17.50;99.90;;;;;;5040388;28;20107;-80
2022/08/01 02:32:09;;;;;;;11.23;1.83;;;17.50;99.90;;;;;;5049042;28;20471;-81
2022/08/01 02:34:35;;;;;;;4.22;1.55;;;17.40;99.90;;;;;;5040581;28;20100;-81
2022/08/01 02:37:04;;;;;;;6.32;1.40;;;17.50;99.90;;;;;;5040041;28;20037;-80
2022/08/01 02:39:31;;;;;;;9.75;1.65;;;17.40;99.90;;;;;;5022697;28;20030;-80
2022/08/01 02:42:03;;;;;;;5.75;1.63;;;17.40;99.90;;;;;;5023022;28;20060;-82
2022/08/01 02:44:36;;;;;;;7.82;1.83;;;17.40;99.90;;;;;;5042749;28;20541;-81
2022/08/01 02:47:03;;;;;;;5.90;1.48;;;17.40;99.90;;;;;;5026470;28;20476;-82
2022/08/01 02:49:37;;;;;;;7.53;1.90;;;17.30;99.90;;;;;;5043389;28;20040;-82
2022/08/01 02:52:06;;;;;;;7.22;1.63;;;17.20;99.90;;;;;;5026052;28;20059;-81
2022/08/01 02:54:33;;;;;;;9.98;2.30;;;17.30;99.90;;;;;;5005745;28;20049;-82
2022/08/01 02:57:01;;;;;;;9.95;2.00;;;17.30;99.90;;;;;;5047197;28;20420;-82
2022/08/01 02:59:27;;;;;;;8.75;2.15;;;17.30;99.90;;;;;;5040705;28;20072;-82
2022/08/01 03:01:57;;;;;;;11.60;2.00;;;17.30;99.90;;;;;;5046884;28;20049;-82
2022/08/01 03:04:24;;;;;;;10.63;2.10;;;17.20;99.90;;;;;;5040397;28;20040;-81
2022/08/01 03:06:52;;;;;;;6.20;2.38;;;17.90;99.90;;;;;;5040090;28;20041;-81
2022/08/01 03:09:19;;;;;;;6.43;2.38;;;17.20;99.90;;;;;;5024229;28;20048;-81
2022/08/01 03:11:47;;;;;;;7.57;2.35;;;17.20;99.90;;;;;;5042914;28;20049;-81
2022/08/01 03:14:15;;;;;;;7.65;2.40;;;17.20;99.90;;;;;;5042284;28;20044;-81
2022/08/01 03:16:44;;;;;;;9.60;2.28;;;17.10;99.90;;;;;;5040062;28;20048;-81
2022/08/01 03:19:11;;;;;;;11.80;2.97;;;17.20;99.90;;;;;;5039514;28;20442;-81
2022/08/01 03:21:39;;;;;;;10.30;2.28;;;17.40;99.90;;;;;;5047282;28;20065;-81
2022/08/01 03:24:07;;;;;;;10.93;2.83;;;17.10;99.90;;;;;;5005878;28;20128;-81
2022/08/01 03:26:35;;;;;;;6.65;2.50;;;17.10;99.90;;;;;;5038994;28;20076;-81
2022/08/01 03:29:09;;;;;;;12.27;2.47;;;17.10;99.90;;;;;;5039629;28;20571;-81
2022/08/01 03:31:42;;;;;;;12.02;2.42;;;17.10;99.90;;;;;;5039839;28;20029;-80
2022/08/01 03:34:08;;;;;;;10.35;2.47;;;17.10;99.90;;;;;;5030153;28;20048;-81
2022/08/01 03:36:39;;;;;;;13.75;2.67;;;17.10;99.90;;;;;;5023740;28;20045;-80
2022/08/01 03:39:08;;;;;;;12.23;2.78;;;17.10;99.90;;;;;;5005137;28;20119;-81
2022/08/01 03:41:40;;;;;;;9.30;2.83;;;17.10;99.90;;;;;;5030053;28;20077;-80
2022/08/01 03:44:15;;;;;;;11.65;2.78;;;17.10;99.90;;;;;;5039789;28;20127;-81
2022/08/01 03:46:53;;;;;;;7.57;2.53;;;17.80;99.90;;;;;;5039047;28;20033;-81
2022/08/01 03:49:25;;;;;;;10.90;2.42;;;17.10;99.90;;;;;;5047730;28;20442;-80
2022/08/01 03:51:53;;;;;;;10.60;2.67;;;17.10;99.90;;;;;;5045585;28;20112;-80
2022/08/01 03:54:25;;;;;;;9.88;2.63;;;17.60;99.90;;;;;;5040772;28;20033;-80
2022/08/01 03:56:51;;;;;;;11.52;2.92;;;17.10;99.90;;;;;;5039969;28;20033;-81
2022/08/01 03:59:18;;;;;;;8.45;2.20;;;17.00;99.90;;;;;;5040481;28;20041;-81
2022/08/01 04:01:46;;;;;;;8.63;2.65;;;17.00;99.90;;;;;;5027490;28;20567;-81
2022/08/01 04:04:12;;;;;;;9.50;2.95;;;17.00;99.90;;;;;;5047573;28;20037;-81
2022/08/01 04:06:39;;;;;;;15.40;3.25;;;17.00;99.90;;;;;;5021515;28;20044;-80
2022/08/01 04:09:07;;;;;;;12.05;3.10;;;16.90;99.90;;;;;;5046217;28;20114;-81
2022/08/01 04:11:33;;;;;;;12.50;3.13;;;16.90;99.90;;;;;;5039644;28;20040;-80
2022/08/01 04:13:58;;;;;;;9.07;2.33;;;16.90;99.90;;;;;;5039051;28;20030;-79
2022/08/01 04:16:24;;;;;;;9.23;3.05;;;17.20;99.90;;;;;;5022886;28;20063;-80
2022/08/01 04:18:49;;;;;;;16.95;2.97;;;17.00;99.90;;;;;;5027895;28;20064;-80
2022/08/01 04:21:19;;;;;;;11.98;2.83;;;16.90;99.90;;;;;;5047056;28;20051;-80
2022/08/01 04:23:46;;;;;;;14.23;2.92;;;16.80;99.90;;;;;;5021779;28;20080;-79
2022/08/01 04:26:14;;;;;;;14.88;2.53;;;17.00;99.90;;;;;;5047997;28;20095;-79
2022/08/01 04:28:42;;;;;;;11.73;2.65;;;16.70;99.90;;;;;;5020982;28;20112;-79
2022/08/01 04:31:11;;;;;;;14.45;2.30;;;16.70;99.90;;;;;;5047029;28;20041;-79
2022/08/01 04:33:40;;;;;;;13.57;3.15;;;17.30;99.90;;;;;;5042595;28;20128;-79
2022/08/01 04:36:07;;;;;;;11.02;2.47;;;17.60;99.90;;;;;;5041678;28;20071;-80
2022/08/01 04:38:36;;;;;;;13.02;2.53;;;16.70;99.90;;;;;;5024731;28;20467;-78
2022/08/01 04:41:02;;;;;;;12.68;2.78;;;16.90;99.90;;;;;;5025013;28;20385;-79
2022/08/01 04:43:28;;;;;;;10.57;2.92;;;16.70;99.90;;;;;;5041556;28;20040;-79
2022/08/01 04:45:54;;;;;;;13.50;2.70;;;16.70;99.90;;;;;;5036832;28;20413;-78
2022/08/01 04:48:21;;;;;;;16.38;2.75;;;16.80;99.90;;;;;;5040055;28;20038;-79
2022/08/01 04:50:47;;;;;;;15.00;3.05;;;16.70;99.90;;;;;;5041625;28;20094;-79
2022/08/01 04:53:21;;;;;;;12.38;2.38;;;16.70;99.90;;;;;;5042533;28;20041;-79
2022/08/01 04:55:47;;;;;;;20.42;3.60;;;16.70;99.90;;;;;;5011462;28;20482;-79
2022/08/01 04:58:15;;;;;;;14.85;2.70;;;17.20;99.90;;;;;;5046684;28;20043;-80
2022/08/01 05:00:41;;;;;;;11.55;2.72;;;16.70;99.90;;;;;;5038854;28;20469;-80
2022/08/01 05:03:07;;;;;;;15.65;2.63;;;16.70;99.90;;;;;;5045790;28;20059;-80
2022/08/01 05:05:33;;;;;;;18.42;3.22;;;16.60;99.90;;;;;;5038964;28;20119;-80
2022/08/01 05:08:00;;;;;;;20.30;3.45;;;16.60;99.90;;;;;;5026962;28;20595;-79
2022/08/01 05:10:26;;;;;;;16.50;2.88;;;16.60;99.90;;;;;;5041299;28;20512;-80
2022/08/01 05:12:52;;;;;;;15.80;2.78;;;16.50;99.90;;;;;;5024318;28;20504;-79
2022/08/01 05:15:17;;;;;;;11.65;2.50;;;17.30;99.90;;;;;;5045704;28;20045;-79
2022/08/01 05:17:43;;;;;;;16.98;2.80;;;16.50;99.90;;;;;;5045152;28;20037;-79
2022/08/01 05:20:11;;;;;;;13.70;3.38;;;16.50;99.90;;;;;;5029017;28;20060;-78
2022/08/01 05:22:37;;;;;;;21.25;3.33;;;16.50;99.90;;;;;;5028557;28;20132;-80
2022/08/01 05:25:04;;;;;;;13.73;2.95;;;16.60;99.90;;;;;;5044784;28;20156;-79
2022/08/01 05:27:30;;;;;;;16.52;2.80;;;16.60;99.90;;;;;;5044187;28;20045;-80
2022/08/01 05:29:56;;;;;;;16.80;3.13;;;16.50;99.90;;;;;;5029408;28;20037;-80
2022/08/01 05:32:22;;;;;;;17.27;3.83;;;16.50;99.90;;;;;;5044411;28;20037;-79
2022/08/01 05:34:47;;;;;;;15.05;3.03;;;17.40;99.90;;;;;;5024067;28;20099;-79
2022/08/01 05:37:13;;;;;;;13.88;2.88;;;16.40;99.90;;;;;;5008031;28;20485;-79
2022/08/01 05:39:41;;;;;;;11.07;1.92;;;16.60;99.90;;;;;;5044041;28;20037;-79
2022/08/01 05:42:07;;;;;;;15.90;3.05;;;16.50;99.90;;;;;;5028266;28;20033;-79
2022/08/01 05:44:33;;;;;;;19.05;2.90;;;17.40;99.90;;;;;;5045268;28;20113;-79
2022/08/01 05:46:58;;;;;;;15.15;2.75;;;16.40;99.90;;;;;;5010618;28;20036;-80
2022/08/01 05:49:24;;;;;;;15.38;2.80;;;16.40;99.90;;;;;;5044995;28;20096;-79
2022/08/01 05:51:49;;;;;;;16.38;2.97;;;16.40;99.90;;;;;;5049235;28;20496;-79
2022/08/01 05:54:15;;;;;;;11.52;2.90;;;16.30;99.90;;;;;;5040882;28;20042;-79
2022/08/01 05:56:41;;;;;;;17.05;3.05;;;16.30;99.90;;;;;;5049857;28;20484;-80
2022/08/01 05:59:06;;;;;;;17.02;3.40;;;16.80;99.90;;;;;;5041553;28;20034;-79
2022/08/01 06:01:32;;;;;;;12.60;3.33;;;16.90;99.90;;;;;;5024515;28;20128;-79
2022/08/01 06:03:58;;;;;;;19.17;3.72;;;17.10;99.90;;;;;;5029692;28;20053;-79
2022/08/01 06:06:24;;;;;;;19.45;6.28;;;16.20;99.90;;;;;;5049824;28;20047;-79
2022/08/01 06:08:50;;;;;;;19.23;5.78;;;17.30;99.90;;;;;;5040765;28;20091;-79
2022/08/01 06:11:15;;;;;;;17.40;5.13;;;15.90;99.90;;;;;;5041491;28;20053;-78
2022/08/01 06:13:41;;;;;;;15.52;3.42;;;16.20;99.90;;;;;;5043393;28;20408;-78
2022/08/01 06:16:07;;;;;;;21.33;3.30;;;16.20;99.90;;;;;;5044706;28;20040;-78
2022/08/01 06:18:34;;;;;;;11.60;2.90;;;16.20;99.90;;;;;;5027098;28;20032;-78
2022/08/01 06:20:59;;;;;;;15.10;3.75;;;16.20;99.90;;;;;;5044393;28;20037;-79
2022/08/01 06:23:25;;;;;;;20.63;3.22;;;16.20;99.90;;;;;;5044423;28;20044;-79
2022/08/01 06:25:54;;;;;;;16.80;3.22;;;16.20;99.90;;;;;;5039616;28;20041;-78
2022/08/01 06:28:21;;;;;;;18.23;3.28;;;16.20;99.90;;;;;;5040351;28;20396;-79
2022/08/01 06:30:47;;;;;;;18.50;3.60;;;16.20;99.90;;;;;;5049146;28;20046;-79
2022/08/01 06:33:12;;;;;;;17.05;3.30;;;16.20;99.90;;;;;;5047936;28;20439;-79
2022/08/01 06:35:38;;;;;;;16.77;3.28;;;16.10;99.90;;;;;;5041666;28;20052;-79
2022/08/01 06:38:03;;;;;;;14.75;3.40;;;16.20;99.90;;;;;;5041083;28;20041;-80
2022/08/01 06:40:29;;;;;;;11.73;2.88;;;16.40;99.90;;;;;;5041709;28;20069;-79
2022/08/01 06:42:55;;;;;;;16.38;3.38;;;16.20;99.90;;;;;;5043650;28;20099;-76
2022/08/01 06:45:22;;;;;;;16.27;3.70;;;16.20;99.90;;;;;;5043834;28;20049;-79
2022/08/01 06:47:48;;;;;;;12.27;2.60;;;16.20;99.90;;;;;;5044204;28;20484;-79
2022/08/01 06:50:14;;;;;;;16.88;3.65;;;16.30;99.90;;;;;;5043317;28;20048;-79
2022/08/01 06:52:41;;;;;;;23.48;3.70;;;16.20;99.90;;;;;;5044004;28;20091;-79
2022/08/01 06:55:07;;;;;;;18.88;3.10;;;16.30;99.90;;;;;;5043850;28;20033;-80
2022/08/01 06:57:33;;;;;;;16.55;3.47;;;16.30;99.90;;;;;;5042354;28;20048;-79
2022/08/01 07:00:05;;;;;;;13.77;3.00;;;16.30;99.90;;;;;;5040396;28;20037;-79
2022/08/01 07:02:31;;;;;;;14.45;2.42;;;16.30;99.90;;;;;;5048664;28;20060;-79
2022/08/01 07:05:00;;;;;;;15.80;2.53;;;16.40;99.90;;;;;;5039584;28;20495;-79
2022/08/01 07:07:26;;;;;;;15.35;2.85;;;16.30;99.90;;;;;;5040349;28;20489;-78
2022/08/01 07:09:52;;;;;;;15.52;2.58;;;16.30;99.90;;;;;;5039858;28;20045;-78
2022/08/01 07:12:17;;;;;;;13.02;2.40;;;16.90;99.90;;;;;;5047868;28;20039;-81
2022/08/01 07:14:43;;;;;;;14.13;2.63;;;16.40;99.90;;;;;;5040963;28;20174;-79
2022/08/01 07:17:12;;;;;;;10.05;2.55;;;16.30;99.90;;;;;;5022311;28;20045;-80
2022/08/01 07:19:37;;;;;;;17.30;2.60;;;16.30;99.90;;;;;;5048471;28;20115;-79
2022/08/01 07:22:03;;;;;;;18.65;4.85;;;17.10;99.90;;;;;;5045400;28;20033;-79
2022/08/01 07:24:29;;;;;;;22.13;5.38;;;16.30;99.90;;;;;;5043153;28;20041;-79
2022/08/01 07:26:57;;;;;;;14.20;3.30;;;16.40;99.90;;;;;;5040018;28;20513;-80
2022/08/01 07:29:24;;;;;;;14.15;2.75;;;17.00;99.90;;;;;;5037444;28;20155;-79
2022/08/01 07:31:51;;;;;;;12.73;2.47;;;16.30;99.90;;;;;;5030299;28;20061;-79
2022/08/01 07:34:16;;;;;;;12.68;2.50;;;16.30;99.90;;;;;;5039783;28;20045;-79
2022/08/01 07:36:42;;;;;;;14.15;2.60;;;16.60;99.90;;;;;;5040672;28;20532;-78
2022/08/01 07:39:08;;;;;;;16.55;2.45;;;16.30;99.90;;;;;;5043281;28;20048;-79
2022/08/01 07:41:33;;;;;;;15.30;2.20;;;16.70;99.90;;;;;;5042784;28;20041;-79
2022/08/01 07:43:59;;;;;;;12.98;2.33;;;16.40;99.90;;;;;;5021058;28;20052;-78
2022/08/01 07:46:25;;;;;;;13.23;2.13;;;16.40;99.90;;;;;;5047074;28;20133;-79
2022/08/01 07:48:50;;;;;;;12.07;2.30;;;16.40;99.90;;;;;;5040470;28;20045;-79
2022/08/01 07:51:16;;;;;;;12.55;1.55;;;16.40;99.90;;;;;;5038986;28;20087;-79
2022/08/01 07:53:43;;;;;;;15.05;2.60;;;16.40;99.90;;;;;;5041069;28;20503;-79
2022/08/01 07:56:08;;;;;;;11.85;2.50;;;16.40;99.90;;;;;;5042825;28;20110;-79
2022/08/01 07:58:35;;;;;;;14.68;2.05;;;17.00;99.90;;;;;;5041855;28;20505;-81
2022/08/01 08:01:01;;;;;;;13.10;3.17;;;16.40;99.90;;;;;;5039942;28;20485;-78
2022/08/01 08:03:26;;;;;;;15.23;2.50;;;16.40;99.90;;;;;;5039628;28;20046;-78
2022/08/01 08:05:52;;;;;;;11.90;2.33;;;16.50;99.90;;;;;;5023664;28;20056;-78
2022/08/01 08:08:18;;;;;;;15.70;2.55;;;16.50;99.90;;;;;;5045032;28;20098;-78
2022/08/01 08:10:45;;;;;;;9.00;1.67;;;16.50;99.90;;;;;;5040825;28;20060;-78
2022/08/01 08:13:10;;;;;;;50.75;28.23;;;16.00;99.90;;;;;;5027657;28;20048;-78
2022/08/01 08:15:36;;;;;;;11.27;3.97;;;16.60;99.90;;;;;;5047253;28;20404;-79
2022/08/01 08:18:04;;;;;;;16.52;2.00;;;16.60;99.90;;;;;;5039561;28;20100;-79
2022/08/01 08:20:30;;;;;;;21.33;2.65;;;16.60;99.90;;;;;;5020937;28;20527;-79
2022/08/01 08:22:58;;;;;;;9.63;1.73;;;16.70;99.90;;;;;;5024684;28;20040;-79
2022/08/01 08:25:25;;;;;;;10.70;1.80;;;16.60;99.90;;;;;;5043476;28;20045;-78
2022/08/01 08:27:51;;;;;;;14.30;2.10;;;16.60;99.90;;;;;;5021575;28;20064;-79
2022/08/01 08:30:17;;;;;;;17.67;2.47;;;16.90;99.90;;;;;;5044740;28;20536;-78
2022/08/01 08:32:43;;;;;;;10.73;2.05;;;16.60;99.90;;;;;;5040908;28;20047;-79
2022/08/01 08:35:09;;;;;;;13.85;1.88;;;16.80;99.90;;;;;;5039135;28;20056;-79
2022/08/01 08:37:36;;;;;;;12.52;1.92;;;16.80;99.90;;;;;;5039313;28;20053;-78
2022/08/01 08:40:04;;;;;;;12.07;2.00;;;16.80;99.90;;;;;;5046799;28;20037;-78
2022/08/01 08:42:29;;;;;;;13.93;1.65;;;16.80;99.90;;;;;;5046321;28;20056;-78
2022/08/01 08:44:55;;;;;;;9.80;1.50;;;16.80;99.90;;;;;;5039791;28;20053;-79
2022/08/01 08:47:22;;;;;;;9.45;1.80;;;16.80;99.90;;;;;;5038628;28;20034;-80
2022/08/01 08:49:51;;;;;;;12.05;1.63;;;16.80;99.90;;;;;;5043263;28;20052;-78
2022/08/01 08:52:19;;;;;;;7.07;1.70;;;16.80;99.90;;;;;;5046687;28;20116;-78
2022/08/01 08:54:47;;;;;;;15.13;2.20;;;16.90;99.90;;;;;;5046084;28;20044;-78
2022/08/01 08:57:15;;;;;;;11.85;1.85;;;16.90;99.90;;;;;;5043562;28;20095;-78
2022/08/01 08:59:43;;;;;;;17.35;2.17;;;16.90;99.90;;;;;;5042648;28;20049;-79
2022/08/01 09:02:09;;;;;;;15.55;2.03;;;16.90;99.90;;;;;;5045876;28;20061;-78
2022/08/01 09:04:40;;;;;;;14.15;1.98;;;17.60;99.90;;;;;;5046257;28;20454;-79
2022/08/01 09:07:06;;;;;;;6.25;1.40;;;16.80;99.90;;;;;;5042767;28;20037;-79
2022/08/01 09:09:32;;;;;;;12.63;1.38;;;16.90;99.90;;;;;;5042049;28;20049;-78
2022/08/01 09:11:58;;;;;;;11.48;1.65;;;17.40;99.90;;;;;;5016368;28;20408;-78
2022/08/01 09:14:29;;;;;;;8.85;1.38;;;17.40;99.90;;;;;;5042339;28;20033;-78
2022/08/01 09:17:12;;;;;;;29.42;19.45;;;16.90;99.90;;;;;;5050356;28;20042;-80
2022/08/01 09:19:47;;;;;;;10.02;4.25;;;16.90;99.90;;;;;;5024515;28;20057;-80
2022/08/01 09:22:21;;;;;;;12.63;1.75;;;17.00;99.90;;;;;;5041989;28;20112;-79
2022/08/01 09:25:04;;;;;;;5.90;1.52;;;17.10;99.90;;;;;;5050315;28;20501;-79
2022/08/01 09:27:38;;;;;;;6.80;1.77;;;17.10;99.90;;;;;;5042554;28;20053;-78
2022/08/01 09:30:08;;;;;;;12.50;1.75;;;17.20;99.90;;;;;;5026424;28;20056;-78
2022/08/01 09:32:34;;;;;;;11.10;1.73;;;17.20;99.90;;;;;;5047273;28;20136;-77
2022/08/01 09:35:23;;;;;;;7.05;1.58;;;17.20;99.90;;;;;;5009847;28;20172;-79
2022/08/01 09:37:49;;;;;;;7.32;1.48;;;17.30;99.90;;;;;;5045278;28;20466;-80
2022/08/01 09:40:15;;;;;;;7.60;1.17;;;17.30;99.90;;;;;;5045725;28;20558;-78
2022/08/01 09:42:41;;;;;;;7.70;1.42;;;17.30;99.90;;;;;;5027820;28;20041;-80
2022/08/01 09:45:10;;;;;;;9.50;2.00;;;17.50;99.90;;;;;;5045347;28;20029;-79
2022/08/01 09:47:39;;;;;;;8.32;2.05;;;17.30;99.90;;;;;;5048157;28;20041;-79
2022/08/01 09:50:06;;;;;;;6.88;1.58;;;17.40;99.90;;;;;;5026604;28;20056;-80
2022/08/01 09:52:33;;;;;;;10.93;1.77;;;17.30;99.90;;;;;;5011002;28;20051;-79
2022/08/01 09:55:00;;;;;;;8.07;1.38;;;17.40;99.90;;;;;;5045140;28;20037;-79
2022/08/01 09:57:27;;;;;;;9.27;1.42;;;17.40;99.90;;;;;;5044681;28;20044;-79
2022/08/01 09:59:56;;;;;;;6.78;1.30;;;17.50;99.90;;;;;;5026468;28;20124;-78
2022/08/01 10:02:32;;;;;;;9.05;1.70;;;18.30;99.90;;;;;;5046197;28;20420;-78
2022/08/01 10:04:58;;;;;;;15.57;1.52;;;17.50;99.90;;;;;;5042953;28;20412;-78
2022/08/01 10:07:24;;;;;;;5.55;1.30;;;17.50;99.90;;;;;;5029025;28;20107;-80
2022/08/01 10:09:52;;;;;;;8.27;1.35;;;17.60;99.90;;;;;;5044997;28;20571;-79
2022/08/01 10:12:21;;;;;;;3.35;0.90;;;17.60;99.90;;;;;;5044884;28;20048;-79
2022/08/01 10:14:54;;;;;;;8.98;1.30;;;17.60;99.90;;;;;;5026797;28;20040;-78
2022/08/01 10:17:25;;;;;;;7.45;1.17;;;17.60;99.90;;;;;;5041737;28;20045;-78
2022/08/01 10:19:54;;;;;;;10.18;1.50;;;17.70;99.90;;;;;;5031595;28;20044;-81
2022/08/01 10:22:26;;;;;;;7.90;1.75;;;17.70;99.90;;;;;;5045449;28;20041;-79
2022/08/01 10:24:55;;;;;;;6.90;1.30;;;17.80;99.90;;;;;;5044505;28;20044;-79
2022/08/01 10:27:25;;;;;;;10.48;1.30;;;17.80;99.90;;;;;;5023340;28;20046;-79
2022/08/01 10:29:57;;;;;;;7.93;1.75;;;18.20;99.90;;;;;;5048979;28;20163;-79
2022/08/01 10:32:23;;;;;;;6.10;0.82;;;17.80;99.90;;;;;;5022801;28;20049;-79
2022/08/01 10:34:52;;;;;;;7.50;1.42;;;17.70;99.90;;;;;;5048394;28;20499;-79
2022/08/01 10:37:18;;;;;;;7.15;1.00;;;17.80;99.90;;;;;;5041414;28;20095;-79
2022/08/01 10:39:44;;;;;;;8.73;1.73;;;17.80;99.90;;;;;;5047642;28;20041;-79
2022/08/01 10:42:11;;;;;;;8.27;1.23;;;17.80;99.90;;;;;;5042179;28;20037;-78
2022/08/01 10:44:38;;;;;;;6.50;1.23;;;17.80;99.90;;;;;;5022601;28;20046;-78
2022/08/01 10:47:12;;;;;;;8.15;1.13;;;17.90;99.90;;;;;;5041511;28;20148;-78
2022/08/01 10:49:50;;;;;;;7.43;1.73;;;18.00;99.90;;;;;;5044408;28;20047;-79
2022/08/01 10:52:19;;;;;;;8.57;0.98;;;18.00;99.90;;;;;;5044146;28;20049;-78
2022/08/01 10:54:45;;;;;;;10.05;1.08;;;18.50;99.90;;;;;;5043107;28;20520;-78
2022/08/01 10:57:14;;;;;;;4.80;0.98;;;18.60;99.90;;;;;;5041728;28;20505;-77
2022/08/01 10:59:51;;;;;;;7.13;2.70;;;18.00;99.90;;;;;;5041099;28;20060;-79
2022/08/01 11:02:28;;;;;;;5.85;1.70;;;18.70;99.90;;;;;;5048201;28;20067;-78
2022/08/01 11:05:23;;;;;;;5.10;1.63;;;18.20;99.90;;;;;;5048103;28;20048;-77
2022/08/01 11:07:52;;;;;;;5.80;1.02;;;18.30;99.90;;;;;;5022929;28;20045;-78
2022/08/01 11:10:44;;;;;;;9.57;1.48;;;18.20;99.90;;;;;;5040379;28;20100;-78
2022/08/01 11:13:11;;;;;;;4.68;0.95;;;18.30;99.90;;;;;;5048648;28;20421;-79
2022/08/01 11:15:38;;;;;;;5.13;1.15;;;18.30;99.90;;;;;;5039539;28;20585;-79
2022/08/01 11:18:26;;;;;;;6.55;1.10;;;18.30;99.90;;;;;;5041200;28;20033;-80
2022/08/01 11:20:57;;;;;;;7.57;1.15;;;18.40;99.90;;;;;;5043680;28;20087;-80
2022/08/01 11:23:24;;;;;;;6.25;1.05;;;18.40;99.90;;;;;;5039869;28;20029;-80
2022/08/01 11:25:50;;;;;;;10.02;1.30;;;18.40;99.90;;;;;;5040280;28;20056;-78
2022/08/01 11:28:16;;;;;;;7.10;1.27;;;18.40;99.90;;;;;;5041588;28;20048;-78
2022/08/01 11:31:07;;;;;;;7.38;1.27;;;18.70;99.90;;;;;;5043496;28;20045;-79
2022/08/01 11:33:42;;;;;;;10.95;1.20;;;18.50;99.90;;;;;;5038231;28;20069;-78
2022/08/01 11:36:15;;;;;;;3.60;1.02;;;18.60;99.90;;;;;;5022702;28;20049;-76
2022/08/01 11:38:43;;;;;;;6.43;0.85;;;18.70;99.90;;;;;;5029891;28;20069;-78
2022/08/01 11:41:24;;;;;;;9.57;0.90;;;18.70;99.90;;;;;;5030466;28;20255;-78
2022/08/01 11:43:57;;;;;;;7.43;1.00;;;18.70;99.90;;;;;;5004855;28;20041;-78
2022/08/01 11:46:51;;;;;;;6.07;0.93;;;18.80;99.90;;;;;;5048090;28;20080;-77
2022/08/01 11:49:36;;;;;;;6.03;0.93;;;18.50;99.90;;;;;;5023633;28;20049;-77
2022/08/01 11:52:09;;;;;;;;;;;18.80;99.90;;;;;;5043441;28;20083;-77
2022/08/01 11:54:46;;;;;;;12.85;1.45;;;18.80;99.90;;;;;;5039394;28;20530;-77
2022/08/01 11:57:21;;;;;;;8.60;1.33;;;18.90;99.90;;;;;;5047380;28;20044;-77
2022/08/01 11:59:56;;;;;;;8.02;1.42;;;18.90;99.90;;;;;;5045373;28;20397;-78
2022/08/01 12:02:31;;;;;;;5.75;1.17;;;19.00;99.90;;;;;;5040809;28;20469;-78
2022/08/01 12:05:09;;;;;;;7.45;1.08;;;19.00;99.90;;;;;;5038775;28;20053;-78
2022/08/01 12:07:36;;;;;;;13.38;7.80;;;19.00;99.90;;;;;;5039650;28;20044;-78
2022/08/01 12:10:12;;;;;;;11.15;2.15;;;19.40;99.90;;;;;;5039504;28;20052;-78
2022/08/01 12:12:46;;;;;;;3.63;1.13;;;19.20;99.90;;;;;;5038759;28;20045;-77
2022/08/01 12:15:13;;;;;;;7.05;1.20;;;19.30;99.90;;;;;;5022474;28;20061;-78
2022/08/01 12:18:05;;;;;;;10.52;1.17;;;20.20;99.90;;;;;;5046680;28;20044;-78
2022/08/01 12:20:34;;;;;;;7.82;1.15;;;19.50;99.90;;;;;;5029786;28;20038;-78
2022/08/01 12:23:02;;;;;;;8.70;1.48;;;19.50;99.90;;;;;;5030933;28;20492;-78
2022/08/01 12:25:28;;;;;;;7.28;1.25;;;19.60;99.90;;;;;;5043588;28;20040;-77
2022/08/01 12:27:54;;;;;;;6.75;1.02;;;19.70;99.90;;;;;;5043536;28;20041;-78
2022/08/01 12:30:24;;;;;;;6.90;1.00;;;19.80;99.90;;;;;;5044940;28;20546;-77
2022/08/01 12:32:51;;;;;;;6.50;0.85;;;19.80;99.90;;;;;;5031410;28;20041;-78
2022/08/01 12:35:22;;;;;;;4.82;0.88;;;19.80;99.90;;;;;;5051379;28;20052;-79
2022/08/01 12:37:56;;;;;;;6.57;1.20;;;19.90;99.90;;;;;;5031080;28;20049;-79
2022/08/01 12:40:25;;;;;;;5.72;0.80;;;20.00;99.90;;;;;;5037794;28;20389;-78
2022/08/01 12:42:57;;;;;;;5.70;0.50;;;20.10;99.90;;;;;;5049598;28;20393;-79
2022/08/01 12:45:42;;;;;;;6.18;1.08;;;20.20;99.90;;;;;;5051313;28;20048;-76
2022/08/01 12:48:11;;;;;;;5.07;0.98;;;20.20;99.90;;;;;;5033070;28;20086;-76
2022/08/01 12:50:39;;;;;;;6.93;1.25;;;20.30;99.90;;;;;;5042799;28;20041;-77